Phoenix, Arizona
Traffic Map
Current Weather Conditions
Phoenix, Arizona
Clear
Clear
55°
Feels Like: 55°
Wind Chill: 55° Ceiling: Unl
Heat Index: 55° Visibility: 10mi
Dew Point: 41° Wind: 0mph
Humidity: 59% Direction: ° ()
Pressure: 30.2in Gusts: 0mph
Raw Report DataKPHX 090651Z 00000KT 10SM CLR 13/05 A3020 RMK AO2 SLP221 T01280050 402000072
Traffic Incident Summary
Active as of:
Severity:
Category:
InformationThere was an issue retrieving the traffic information for this location. Please try a different location or try again shortly.
Advertisements
Track Severe Weather on mobile